Partly Cloudy Current Weather (METAR) For Antalya Airport

All times on the weather descriptions are local

Observed at 16:50 - (21 mins ago)

Partly Cloudy

31°C

Partly Cloudy
Clouds: Scattered Clouds at 3,000ft
Wind: 150° at 06 knots, varying from 070° to 190
Visibility: Greater than 10km
QNH: 1007
Dew Point: 25°C
Runway in Use: Runways 18L/C/R

Sunrise Today: 06:25
Sunset Today: 19:29

Forecast Weather (TAF) For Antalya Airport

Issued at 03:00 - (9 hrs 48 mins ago)


Runway in Use: Unable to determine, wind is clam

Forecast valid until 03:00 on Sunday

METAR/TAF RAW METAR / TAF

LTAI 301350Z 15006KT 070V190 9999 SCT030 31/25 Q1007 NOSIG RMK RWY18C 14008KT 110V190 RWY36R 14007KT 100V170 RWY18L 14007KT 100V210

Weather Widget

Put weather from any of our airports on your website with our weather widget.

Find Another Search

Airport Search


Please Wait Please Wait - Loading
Close
Close

Login

Username:

Password:

Remember Me:

Remember me on this computer

Forgotten your password? Get a reset password sent to your registered e-mail address

Close

User Private Message

Subject:

Message: